Armada Township, MI

2:37 AM EDT on August 03, 2015 (GMT -0400)
Armada Center | | Change Station
CLOSE
Current Station
Personal Weather Station
Location: Armada, MI
Elevation: 640 ft
Nearby Weather Stations

Elev 640 ft 42.84 °N, 82.89 °W | Updated 14 seconds ago

Thunderstorm
Thunderstorm
63.0 °F
Feels Like 63.0 °F
N
0.0
Wind Variable Wind from North
Gusts 3.1 mph

Today
High -- | Low -- °F
--% Chance of Precip.
Yesterday
High -- | Low -- °F
Precip. -- in
6:24 AM 8:50 PM
Waning Gibbous, 89% visible
Pressure 29.65 in
Visibility 10.0 miles
Clouds Few 900 ft
Mostly Cloudy 4300 ft
Dew Point 62 °F
Humidity 97%
Rainfall 0.18 in
Snow Depth Not available.
UV 0.0 out of 12
Pollen 8.40 out of 12
Air Quality Not available.
Flu Activity Not available.
SPECI KMTC 030632Z AUTO 17018G33KT 10SM -RA VCTS FEW009 BKN043 18/17 A2965 RMK AO2 LTG DSNT NE AND SE RAB15 TSE17 PRESRR

More Conditions Fewer Conditions

Pressure 29.65 in
Visibility 10.0 miles
Clouds Few 900 ft
Mostly Cloudy 4300 ft
Dew Point 62 °F
Humidity 97%
Rainfall 0.18 in
Snow Depth Not available.
UV 0.0 out of 12
Pollen 8.40 out of 12
Air Quality Not available.
Flu Activity Not available.
SPECI KMTC 030632Z AUTO 17018G33KT 10SM -RA VCTS FEW009 BKN043 18/17 A2965 RMK AO2 LTG DSNT NE AND SE RAB15 TSE17 PRESRR

More Conditions Fewer Conditions

10-Day Weather Forecast

×

Almanac

Astronomy

Aug. 03, 2015 Rise Set
Actual Time
Civil Twilight
Nautical Twilight
Astronomical Twilight
Moon
Length of Visible Light
Length of Day
Tomorrow will be .
, % of the Moon is Illuminated

Today's Extremes

State Highs State Lows

Community

WunderPhotos

Upload Photos

1,843,595 photos uploaded!

WunderBlogs® & News

Nearby

Air Quality

  Air Quality AQ Index Pollutant
Not available.

Snow Depth

Station Depth Elevation

Earthquake Activity

City Distance Mag. Time & Date
Minimum magnitude displayed is 2.5.

Coastal Water Temperatures

Place Temperature

Stations

Nearby Weather Stations

Station Location Temp. Windchill Dew Point Humidity Wind Precip. Elev Updated Type
                   
Severe Thunderstorm Watch
Statement as of 12:48 AM EDT on August 03, 2015


The National Weather Service has cancelled Severe Thunderstorm
Watch 463 for the following areas

In Michigan this cancels 7 counties

In Southeast Michigan

Lenawee Livingston Macomb
Monroe Oakland Washtenaw
Wayne

This includes the cities of... Ann Arbor... Brighton... Canton...
Clinton... Dearborn... Ferndale... Fowlerville... Howell...
Lambertville... Lincoln Park... Livonia... Monroe... Novi... Pontiac...
Redford... Royal Oak... Southfield... St. Clair Shores...
Sterling Heights... Taylor... Temperance... Troy... Warren...
Waterford and Westland.